createdAt,value
2019-03-21T00:00:12.668Z,32.80
2019-03-21T00:02:46.491Z,31.62
2019-03-21T00:05:18.818Z,28.25
2019-03-21T00:07:51.024Z,32.25
2019-03-21T00:10:55.046Z,26.95
2019-03-21T00:13:27.290Z,26.20
2019-03-21T00:16:01.826Z,30.40
2019-03-21T00:18:34.032Z,32.48
2019-03-21T00:21:06.434Z,29.27
2019-03-21T00:23:38.374Z,27.00
2019-03-21T00:26:10.502Z,32.45
2019-03-21T00:28:43.838Z,25.88
2019-03-21T00:31:16.126Z,30.15
2019-03-21T00:33:48.641Z,28.10
2019-03-21T00:36:20.601Z,29.55
2019-03-21T00:38:52.859Z,25.60
2019-03-21T00:41:24.746Z,29.05
2019-03-21T00:43:56.696Z,29.87
2019-03-21T00:46:28.854Z,25.17
2019-03-21T00:49:01.023Z,28.20
2019-03-21T00:51:33.088Z,28.47
2019-03-21T00:54:05.261Z,25.08
2019-03-21T00:56:37.266Z,30.27
2019-03-21T00:59:09.281Z,26.97
2019-03-21T01:01:41.499Z,30.77
2019-03-21T01:04:13.354Z,28.27
2019-03-21T01:06:45.571Z,27.05
2019-03-21T01:09:17.661Z,26.68
2019-03-21T01:11:49.853Z,27.95
2019-03-21T01:14:29.839Z,29.02
2019-03-21T01:16:55.412Z,25.95
2019-03-21T01:19:27.374Z,26.68
2019-03-21T01:21:59.320Z,30.75
2019-03-21T01:24:31.239Z,26.65
2019-03-21T01:27:03.364Z,33.73
2019-03-21T01:29:35.197Z,26.05
2019-03-21T01:32:07.087Z,27.70
2019-03-21T01:34:39.237Z,31.35
2019-03-21T01:37:11.518Z,29.20
2019-03-21T01:39:43.735Z,29.65
2019-03-21T01:42:15.832Z,34.23
2019-03-21T01:44:47.930Z,28.25
2019-03-21T01:47:20.374Z,32.75
2019-03-21T01:49:52.283Z,28.07
2019-03-21T01:52:24.239Z,25.08
2019-03-21T01:54:56.326Z,27.40
2019-03-21T01:57:28.522Z,23.87
2019-03-21T02:00:00.745Z,25.30
2019-03-21T02:02:34.042Z,23.87
2019-03-21T02:05:06.421Z,22.73
2019-03-21T02:07:38.625Z,23.07
2019-03-21T02:10:13.263Z,25.10
2019-03-21T02:12:45.517Z,23.55
2019-03-21T02:15:17.845Z,23.75
2019-03-21T02:17:50.068Z,23.70
2019-03-21T02:20:23.134Z,24.87
2019-03-21T02:22:55.194Z,23.85
2019-03-21T02:25:29.023Z,27.37
2019-03-21T02:28:01.297Z,23.85
2019-03-21T02:30:35.133Z,24.70
2019-03-21T02:33:22.449Z,21.12
2019-03-21T02:35:54.618Z,22.87
2019-03-21T02:38:26.647Z,21.42
2019-03-21T02:40:59.107Z,23.25
2019-03-21T02:43:31.401Z,25.00
2019-03-21T02:46:03.284Z,25.40
2019-03-21T02:48:35.246Z,21.77
2019-03-21T02:51:07.626Z,23.87
2019-03-21T02:53:39.844Z,24.12
2019-03-21T02:56:13.548Z,24.15
2019-03-21T02:58:45.423Z,24.02
2019-03-21T03:01:17.237Z,24.32
2019-03-21T03:03:50.199Z,20.68
2019-03-21T03:06:22.165Z,24.12
2019-03-21T03:08:54.387Z,23.20
2019-03-21T03:11:26.904Z,22.65
2019-03-21T03:13:58.918Z,24.87
2019-03-21T03:16:31.101Z,21.20
2019-03-21T03:19:03.262Z,21.12
2019-03-21T03:21:35.020Z,22.27
2019-03-21T03:24:07.904Z,21.62
2019-03-21T03:26:39.803Z,22.52
2019-03-21T03:29:11.732Z,22.20
2019-03-21T03:31:43.509Z,21.42
2019-03-21T03:34:15.693Z,23.65
2019-03-21T03:36:47.906Z,20.97
2019-03-21T03:39:20.108Z,23.55
2019-03-21T03:41:52.162Z,25.43
2019-03-21T03:44:24.111Z,22.07
2019-03-21T03:46:56.063Z,24.15
2019-03-21T03:49:28.349Z,23.62
2019-03-21T03:52:00.508Z,20.95
2019-03-21T03:54:32.585Z,22.30
2019-03-21T03:57:04.374Z,24.57
2019-03-21T03:59:36.484Z,24.37
2019-03-21T04:02:08.439Z,24.43
2019-03-21T04:04:40.750Z,23.30
2019-03-21T04:07:12.755Z,25.75
2019-03-21T04:09:44.782Z,23.90
2019-03-21T04:12:16.950Z,22.95
2019-03-21T04:14:48.894Z,22.15
2019-03-21T04:17:20.726Z,23.55
2019-03-21T04:19:52.748Z,24.40
2019-03-21T04:22:24.826Z,23.73
2019-03-21T04:24:56.857Z,24.30
2019-03-21T04:27:28.994Z,22.10
2019-03-21T04:30:00.871Z,23.92
2019-03-21T04:32:33.059Z,23.95
2019-03-21T04:35:04.939Z,24.20
2019-03-21T04:37:36.709Z,24.30
2019-03-21T04:40:09.212Z,26.52
2019-03-21T04:42:41.452Z,24.55
2019-03-21T04:45:16.572Z,25.00
2019-03-21T04:47:48.622Z,23.62
2019-03-21T04:50:23.232Z,26.20
2019-03-21T04:52:55.406Z,21.93
2019-03-21T04:55:27.649Z,25.65
2019-03-21T04:57:59.746Z,22.32
2019-03-21T05:00:32.830Z,20.85
2019-03-21T05:03:05.624Z,22.30
2019-03-21T05:05:37.467Z,25.15
2019-03-21T05:08:09.433Z,26.80
2019-03-21T05:10:41.411Z,29.72
2019-03-21T05:13:13.640Z,25.00
2019-03-21T05:15:45.791Z,22.60
2019-03-21T05:18:29.900Z,25.60
2019-03-21T05:21:03.017Z,27.48
2019-03-21T05:23:34.863Z,26.20
2019-03-21T05:26:06.750Z,25.00
2019-03-21T05:28:38.617Z,25.97
2019-03-21T05:31:15.767Z,27.17
2019-03-21T05:33:47.595Z,23.83
2019-03-21T05:36:19.766Z,27.90
2019-03-21T05:38:51.722Z,28.45
2019-03-21T05:41:23.841Z,28.83
2019-03-21T05:44:02.481Z,25.62
2019-03-21T05:46:34.683Z,27.17
2019-03-21T05:49:06.682Z,25.62
2019-03-21T05:51:38.471Z,27.22
2019-03-21T05:54:10.630Z,30.68
2019-03-21T05:56:42.455Z,26.20
2019-03-21T05:59:14.274Z,28.12
2019-03-21T06:01:47.028Z,28.90
2019-03-21T06:04:18.881Z,24.70
2019-03-21T06:07:30.873Z,23.67
2019-03-21T06:10:02.845Z,25.15
2019-03-21T06:12:42.633Z,24.82
2019-03-21T06:15:15.867Z,26.90
2019-03-21T06:17:52.992Z,26.70
2019-03-21T06:21:05.117Z,28.02
2019-03-21T06:23:57.257Z,26.48
2019-03-21T06:26:50.431Z,31.15
2019-03-21T06:29:22.372Z,27.55
2019-03-21T06:31:54.334Z,26.93
2019-03-21T06:34:26.436Z,24.70
2019-03-21T06:36:58.247Z,27.02
2019-03-21T06:39:30.333Z,27.20
2019-03-21T06:42:02.375Z,28.17
2019-03-21T06:44:34.311Z,30.27
2019-03-21T06:47:06.258Z,29.57
2019-03-21T06:49:38.020Z,29.87
2019-03-21T06:52:09.874Z,32.25
2019-03-21T06:54:42.076Z,32.08
2019-03-21T06:57:14.114Z,30.32
2019-03-21T06:59:46.370Z,33.20
2019-03-21T07:02:18.323Z,29.85
2019-03-21T07:04:50.377Z,25.25
2019-03-21T07:07:24.121Z,26.17
2019-03-21T07:09:56.947Z,26.60
2019-03-21T07:12:28.927Z,28.98
2019-03-21T07:15:01.177Z,23.18
2019-03-21T07:17:33.430Z,25.92
2019-03-21T07:20:06.199Z,26.85
2019-03-21T07:22:38.598Z,31.68
2019-03-21T07:25:11.384Z,28.23
2019-03-21T07:27:43.599Z,34.80
2019-03-21T07:30:15.869Z,28.00
2019-03-21T07:32:47.948Z,28.17
2019-03-21T07:35:20.335Z,26.55
2019-03-21T07:37:52.239Z,30.02
2019-03-21T07:40:24.676Z,32.48
2019-03-21T07:42:56.787Z,31.37
2019-03-21T07:45:29.019Z,28.75
2019-03-21T07:48:01.256Z,35.60
2019-03-21T07:50:33.628Z,34.90
2019-03-21T07:53:05.842Z,27.85
2019-03-21T07:55:38.064Z,28.77
2019-03-21T07:58:10.049Z,33.02
2019-03-21T08:00:42.709Z,33.13
2019-03-21T08:03:14.898Z,31.68
2019-03-21T08:05:46.975Z,32.63
2019-03-21T08:08:18.858Z,34.50
2019-03-21T08:10:50.800Z,33.65
2019-03-21T08:13:22.943Z,34.83
2019-03-21T08:15:55.159Z,29.67
2019-03-21T08:18:26.906Z,32.67
2019-03-21T08:21:00.295Z,29.63
2019-03-21T08:23:32.296Z,29.20
2019-03-21T08:26:04.531Z,30.95
2019-03-21T08:28:36.595Z,30.08
2019-03-21T08:31:33.185Z,31.33
2019-03-21T08:34:05.590Z,34.58
2019-03-21T08:36:37.678Z,31.60
2019-03-21T08:39:10.398Z,29.82
2019-03-21T08:41:42.616Z,32.45
2019-03-21T08:44:14.456Z,29.63
2019-03-21T08:46:46.289Z,28.92
2019-03-21T08:49:18.406Z,30.95
2019-03-21T08:51:50.321Z,35.10
2019-03-21T08:54:22.597Z,67.47
2019-03-21T08:56:54.868Z,35.90
2019-03-21T08:59:26.722Z,32.83
2019-03-21T09:01:58.865Z,37.03
2019-03-21T09:04:30.897Z,36.53
2019-03-21T09:07:03.147Z,41.37
2019-03-21T09:09:35.437Z,34.83
2019-03-21T09:12:07.668Z,43.35
2019-03-21T09:14:39.483Z,49.10
2019-03-21T09:17:11.612Z,40.43
2019-03-21T09:19:43.653Z,35.35
2019-03-21T09:22:16.198Z,51.18
2019-03-21T09:24:48.242Z,47.58
2019-03-21T09:27:20.425Z,45.48
2019-03-21T09:29:53.769Z,38.00
2019-03-21T09:32:25.972Z,38.25
2019-03-21T09:34:58.105Z,38.78
2019-03-21T09:37:30.014Z,40.67
2019-03-21T09:40:03.174Z,37.88
2019-03-21T09:42:35.187Z,42.48
2019-03-21T09:45:08.253Z,34.67
2019-03-21T09:47:40.212Z,51.77
2019-03-21T09:50:14.652Z,62.08
2019-03-21T09:52:46.629Z,41.05
2019-03-21T09:55:18.721Z,45.28
2019-03-21T09:57:50.728Z,45.10
2019-03-21T10:00:34.161Z,43.75
2019-03-21T10:03:06.648Z,39.38
2019-03-21T10:05:38.716Z,42.62
2019-03-21T10:08:10.740Z,41.15
2019-03-21T10:10:42.577Z,38.70
2019-03-21T10:13:14.483Z,45.92
2019-03-21T10:15:46.460Z,39.90
2019-03-21T10:18:18.405Z,39.78
2019-03-21T10:20:50.265Z,39.92
2019-03-21T10:23:22.150Z,38.55
2019-03-21T10:25:55.879Z,36.65
2019-03-21T10:28:27.588Z,35.83
2019-03-21T10:30:59.338Z,33.93
2019-03-21T10:33:30.905Z,35.00
2019-03-21T10:36:02.517Z,33.43
2019-03-21T10:38:34.276Z,36.27
2019-03-21T10:41:06.029Z,39.47
2019-03-21T10:43:37.900Z,38.33
2019-03-21T10:46:09.473Z,38.10
2019-03-21T10:48:41.217Z,35.50
2019-03-21T10:51:12.913Z,40.33
2019-03-21T10:53:44.436Z,36.70
2019-03-21T10:56:16.346Z,37.80
2019-03-21T10:58:48.109Z,35.57
2019-03-21T11:01:19.888Z,36.40
2019-03-21T11:03:51.682Z,41.63
2019-03-21T11:06:23.426Z,33.60
2019-03-21T11:08:55.305Z,33.77
2019-03-21T11:11:27.252Z,33.23
2019-03-21T11:13:59.082Z,29.60
2019-03-21T11:16:31.574Z,31.03
2019-03-21T11:19:03.489Z,34.57
2019-03-21T11:21:36.138Z,34.03
2019-03-21T11:24:07.830Z,30.00
2019-03-21T11:26:39.646Z,26.67
2019-03-21T11:29:11.193Z,31.10
2019-03-21T11:31:42.830Z,26.87
2019-03-21T11:34:14.528Z,25.67
2019-03-21T11:36:45.963Z,27.20
2019-03-21T11:39:17.742Z,29.20
2019-03-21T11:41:49.404Z,29.10
2019-03-21T11:44:22.107Z,31.47
2019-03-21T11:46:53.663Z,26.23
2019-03-21T11:49:25.161Z,31.00
2019-03-21T11:51:56.912Z,43.13
2019-03-21T11:54:28.463Z,24.50
2019-03-21T11:56:59.956Z,25.70
2019-03-21T11:59:46.185Z,24.67
2019-03-21T12:02:05.024Z,24.63
2019-03-21T12:04:36.628Z,22.13
2019-03-21T12:07:08.524Z,25.30
2019-03-21T12:09:40.242Z,24.50
2019-03-21T12:12:11.919Z,22.80
2019-03-21T12:14:43.441Z,21.07
2019-03-21T12:17:15.013Z,20.37
2019-03-21T12:19:46.701Z,20.83
2019-03-21T12:22:29.146Z,24.07
2019-03-21T12:24:51.804Z,24.57
2019-03-21T12:27:23.866Z,20.67
2019-03-21T12:29:55.640Z,20.47
2019-03-21T12:32:27.598Z,31.97
2019-03-21T12:35:00.429Z,21.73
2019-03-21T12:37:32.170Z,17.87
2019-03-21T12:40:03.735Z,19.23
2019-03-21T12:42:36.555Z,16.23
2019-03-21T12:45:10.502Z,17.47
2019-03-21T12:47:42.230Z,19.83
2019-03-21T12:50:14.067Z,20.20
2019-03-21T12:52:45.893Z,18.87
2019-03-21T12:55:17.768Z,19.87
2019-03-21T12:57:49.679Z,18.33
2019-03-21T13:00:46.947Z,16.93
2019-03-21T13:03:18.557Z,17.70
2019-03-21T13:05:50.082Z,18.70
2019-03-21T13:08:33.080Z,19.07
2019-03-21T13:10:55.016Z,16.67
2019-03-21T13:13:26.631Z,16.97
2019-03-21T13:15:58.680Z,20.20
2019-03-21T13:18:30.710Z,19.73
2019-03-21T13:21:02.889Z,17.10
2019-03-21T13:23:34.790Z,20.33
2019-03-21T13:26:06.720Z,19.67
2019-03-21T13:28:38.251Z,18.30
2019-03-21T13:31:10.245Z,20.87
2019-03-21T13:33:42.340Z,17.03
2019-03-21T13:36:15.369Z,15.90
2019-03-21T13:38:47.126Z,18.90
2019-03-21T13:41:19.901Z,15.30
2019-03-21T13:43:51.717Z,19.13
2019-03-21T13:46:23.225Z,16.73
2019-03-21T13:48:54.813Z,20.53
2019-03-21T13:51:26.592Z,15.83
2019-03-21T13:53:58.045Z,16.93
2019-03-21T13:56:37.785Z,17.67
2019-03-21T13:59:02.923Z,16.87
2019-03-21T14:01:34.669Z,14.53
2019-03-21T14:04:06.363Z,14.87
2019-03-21T14:06:38.115Z,19.40
2019-03-21T14:09:10.088Z,17.77
2019-03-21T14:11:41.611Z,17.90
2019-03-21T14:14:13.073Z,17.80
2019-03-21T14:16:44.599Z,17.53
2019-03-21T14:19:16.176Z,18.13
2019-03-21T14:21:48.221Z,18.00
2019-03-21T14:24:20.163Z,14.13
2019-03-21T14:26:51.687Z,16.03
2019-03-21T14:29:23.311Z,18.97
2019-03-21T14:31:54.791Z,14.47
2019-03-21T14:34:26.459Z,13.43
2019-03-21T14:36:58.071Z,14.03
2019-03-21T14:39:30.236Z,17.10
2019-03-21T14:42:01.954Z,16.27
2019-03-21T14:44:33.872Z,18.37
2019-03-21T14:47:05.708Z,19.93
2019-03-21T14:49:37.652Z,16.83
2019-03-21T14:52:09.401Z,21.20
2019-03-21T14:54:41.213Z,21.03
2019-03-21T14:57:13.182Z,19.10
2019-03-21T14:59:45.051Z,18.53
2019-03-21T15:02:16.724Z,21.33
2019-03-21T15:04:48.310Z,24.07
2019-03-21T15:07:20.004Z,19.90
2019-03-21T15:09:51.720Z,20.33
2019-03-21T15:12:23.395Z,22.50
2019-03-21T15:14:54.962Z,23.90
2019-03-21T15:17:26.794Z,22.00
2019-03-21T15:19:58.601Z,22.00
2019-03-21T15:22:30.191Z,22.53
2019-03-21T15:25:01.642Z,24.10
2019-03-21T15:27:33.722Z,22.83
2019-03-21T15:30:06.438Z,24.47
2019-03-21T15:32:38.193Z,24.93
2019-03-21T15:35:11.198Z,28.37
2019-03-21T15:37:42.984Z,26.33
2019-03-21T15:40:15.471Z,29.27
2019-03-21T15:42:47.032Z,23.27
2019-03-21T15:45:23.607Z,22.20
2019-03-21T15:47:52.425Z,28.23
2019-03-21T15:50:32.026Z,24.57
2019-03-21T15:53:03.639Z,25.13
2019-03-21T15:55:35.412Z,26.63
2019-03-21T15:58:07.333Z,24.17
2019-03-21T16:00:40.653Z,30.00
2019-03-21T16:03:13.241Z,24.37
2019-03-21T16:05:45.047Z,27.37
2019-03-21T16:08:16.574Z,25.73
2019-03-21T16:10:48.493Z,25.10
2019-03-21T16:13:20.391Z,25.83
2019-03-21T16:15:52.198Z,22.83
2019-03-21T16:18:25.138Z,26.02
2019-03-21T16:20:57.231Z,28.30
2019-03-21T16:23:29.167Z,25.90
2019-03-21T16:26:00.948Z,36.35
2019-03-21T16:28:32.682Z,32.73
2019-03-21T16:31:04.542Z,34.10
2019-03-21T16:33:36.402Z,23.53
2019-03-21T16:36:08.313Z,24.70
2019-03-21T16:38:40.218Z,21.30
2019-03-21T16:41:11.966Z,21.77
2019-03-21T16:43:43.848Z,26.40
2019-03-21T16:46:15.659Z,24.47
2019-03-21T16:48:47.529Z,24.20
2019-03-21T16:51:19.161Z,32.00
2019-03-21T16:53:50.946Z,21.75
2019-03-21T16:56:23.049Z,21.95
2019-03-21T16:58:55.751Z,25.37
2019-03-21T17:01:27.988Z,23.52
2019-03-21T17:03:59.842Z,25.20
2019-03-21T17:06:31.773Z,26.40
2019-03-21T17:09:04.210Z,22.60
2019-03-21T17:11:36.514Z,25.95
2019-03-21T17:14:08.647Z,25.50
2019-03-21T17:16:40.666Z,25.37
2019-03-21T17:19:12.535Z,22.70
2019-03-21T17:21:44.569Z,21.57
2019-03-21T17:24:28.435Z,22.67
2019-03-21T17:26:50.339Z,22.07
2019-03-21T17:29:28.561Z,24.90
2019-03-21T17:32:03.036Z,21.95
2019-03-21T17:34:35.238Z,24.63
2019-03-21T17:37:07.202Z,24.92
2019-03-21T17:39:39.124Z,25.48
2019-03-21T17:42:10.987Z,19.90
2019-03-21T17:44:43.002Z,23.38
2019-03-21T17:47:14.864Z,23.98
2019-03-21T17:49:46.879Z,21.48
2019-03-21T17:52:19.134Z,23.25
2019-03-21T17:54:51.228Z,26.65
2019-03-21T17:57:34.056Z,28.65
2019-03-21T17:59:56.877Z,22.30
2019-03-21T18:02:28.824Z,30.72
2019-03-21T18:05:01.114Z,25.32
2019-03-21T18:07:32.850Z,25.90
2019-03-21T18:10:05.463Z,31.10
2019-03-21T18:12:37.691Z,26.20
2019-03-21T18:15:09.978Z,29.67
2019-03-21T18:17:41.815Z,26.62
2019-03-21T18:20:13.914Z,26.12
2019-03-21T18:22:45.970Z,32.15
2019-03-21T18:25:18.055Z,29.63
2019-03-21T18:27:50.453Z,30.48
2019-03-21T18:30:22.557Z,34.20
2019-03-21T18:32:54.740Z,32.40
2019-03-21T18:35:27.001Z,29.50
2019-03-21T18:38:00.169Z,27.17
2019-03-21T18:40:32.178Z,27.87
2019-03-21T18:43:04.465Z,28.70
2019-03-21T18:45:36.486Z,32.13
2019-03-21T18:48:08.576Z,29.72
2019-03-21T18:50:40.373Z,30.12
2019-03-21T18:53:12.298Z,28.25
2019-03-21T18:55:44.285Z,31.25
2019-03-21T18:58:16.703Z,29.72
2019-03-21T19:00:48.556Z,50.03
2019-03-21T19:03:20.406Z,47.58
2019-03-21T19:05:52.327Z,43.05
2019-03-21T19:08:24.384Z,41.45
2019-03-21T19:10:56.398Z,34.70
2019-03-21T19:13:28.309Z,31.82
2019-03-21T19:16:00.209Z,28.67
2019-03-21T19:18:32.959Z,25.97
2019-03-21T19:21:04.897Z,31.70
2019-03-21T19:23:36.764Z,29.92
2019-03-21T19:26:08.804Z,28.42
2019-03-21T19:28:40.871Z,30.10
2019-03-21T19:31:13.058Z,27.98
2019-03-21T19:33:45.230Z,34.25
2019-03-21T19:36:17.269Z,26.02
2019-03-21T19:38:49.167Z,28.60
2019-03-21T19:41:21.376Z,27.52
2019-03-21T19:43:53.659Z,26.60
2019-03-21T19:46:25.467Z,29.55
2019-03-21T19:48:57.549Z,26.95
2019-03-21T19:51:29.597Z,31.87
2019-03-21T19:54:01.464Z,26.33
2019-03-21T19:56:33.637Z,31.12
2019-03-21T19:59:05.709Z,27.52
2019-03-21T20:01:37.790Z,29.02
2019-03-21T20:04:09.881Z,28.98
2019-03-21T20:06:41.718Z,27.15
2019-03-21T20:09:13.618Z,30.88
2019-03-21T20:11:45.610Z,30.43
2019-03-21T20:14:17.511Z,29.57
2019-03-21T20:16:49.389Z,28.27
2019-03-21T20:19:21.455Z,28.27
2019-03-21T20:21:53.361Z,30.10
2019-03-21T20:24:25.488Z,33.38
2019-03-21T20:26:57.456Z,33.48
2019-03-21T20:29:29.258Z,35.92
2019-03-21T20:32:01.068Z,29.80
2019-03-21T20:34:33.148Z,35.30
2019-03-21T20:37:05.332Z,33.80
2019-03-21T20:39:37.371Z,33.35
2019-03-21T20:42:09.526Z,30.92
2019-03-21T20:44:41.658Z,34.88
2019-03-21T20:47:13.626Z,33.48
2019-03-21T20:49:45.730Z,32.63
2019-03-21T20:52:17.682Z,33.35
2019-03-21T20:54:53.315Z,32.08
2019-03-21T20:57:25.638Z,32.13
2019-03-21T20:59:57.763Z,25.88
2019-03-21T21:02:29.676Z,31.97
2019-03-21T21:05:01.679Z,27.73
2019-03-21T21:07:33.905Z,31.12
2019-03-21T21:10:07.656Z,27.95
2019-03-21T21:12:39.892Z,26.52
2019-03-21T21:15:12.338Z,30.52
2019-03-21T21:17:44.449Z,32.13
2019-03-21T21:20:16.641Z,27.07
2019-03-21T21:22:48.639Z,28.30
2019-03-21T21:25:20.629Z,33.35
2019-03-21T21:27:52.963Z,33.18
2019-03-21T21:30:25.155Z,31.25
2019-03-21T21:32:57.294Z,34.58
2019-03-21T21:35:29.273Z,42.17
2019-03-21T21:38:01.131Z,32.67
2019-03-21T21:40:34.549Z,35.13
2019-03-21T21:43:06.564Z,31.12
2019-03-21T21:45:39.538Z,32.17
2019-03-21T21:48:11.512Z,30.65
2019-03-21T21:50:43.564Z,29.98
2019-03-21T21:53:15.322Z,32.88
2019-03-21T21:55:47.281Z,30.32
2019-03-21T21:58:19.098Z,34.50
2019-03-21T22:00:51.080Z,33.13
2019-03-21T22:03:23.307Z,32.58
2019-03-21T22:05:55.605Z,33.48
2019-03-21T22:08:27.939Z,30.45
2019-03-21T22:11:00.103Z,32.25
2019-03-21T22:13:32.236Z,29.52
2019-03-21T22:16:04.152Z,35.13
2019-03-21T22:18:36.195Z,30.60
2019-03-21T22:21:08.213Z,35.85
2019-03-21T22:23:40.400Z,34.65
2019-03-21T22:26:12.536Z,37.33
2019-03-21T22:28:44.639Z,32.38
2019-03-21T22:31:16.976Z,46.28
2019-03-21T22:33:48.926Z,35.92
2019-03-21T22:36:21.129Z,40.00
2019-03-21T22:38:53.003Z,33.88
2019-03-21T22:41:24.939Z,41.02
2019-03-21T22:43:56.852Z,39.03
2019-03-21T22:46:28.884Z,38.60
2019-03-21T22:49:00.670Z,42.60
2019-03-21T22:51:32.748Z,35.28
2019-03-21T22:54:04.603Z,33.78
2019-03-21T22:56:41.142Z,39.75
2019-03-21T22:59:10.207Z,34.55
2019-03-21T23:01:42.372Z,39.70
2019-03-21T23:04:14.324Z,36.75
2019-03-21T23:06:46.459Z,38.05
2019-03-21T23:09:18.226Z,36.73
2019-03-21T23:11:50.187Z,37.00
2019-03-21T23:14:22.191Z,34.00
2019-03-21T23:16:54.435Z,39.90
2019-03-21T23:19:26.396Z,39.08
2019-03-21T23:21:58.859Z,36.95
2019-03-21T23:24:32.250Z,38.88
2019-03-21T23:27:04.678Z,38.98
2019-03-21T23:29:36.802Z,37.03
2019-03-21T23:32:08.747Z,33.70
2019-03-21T23:34:40.759Z,34.35
2019-03-21T23:37:12.789Z,34.23
2019-03-21T23:39:44.814Z,34.45
2019-03-21T23:42:17.077Z,33.67
2019-03-21T23:44:49.297Z,34.35
2019-03-21T23:47:21.484Z,35.83
2019-03-21T23:49:53.550Z,36.90
2019-03-21T23:52:25.729Z,33.92
2019-03-21T23:54:57.862Z,40.52
2019-03-21T23:57:30.122Z,35.95
